createdAt,value
2022-08-10T00:04:54.254Z,101532.69
2022-08-10T00:09:56.742Z,101517.38
2022-08-10T00:15:00.087Z,101522.16
2022-08-10T00:20:08.696Z,101515.69
2022-08-10T00:25:11.696Z,101517.59
2022-08-10T00:30:14.759Z,101520.38
2022-08-10T00:35:18.677Z,101521.94
2022-08-10T00:40:21.194Z,101521.50
2022-08-10T00:45:40.141Z,101510.72
2022-08-10T00:50:43.993Z,101503.72
2022-08-10T00:57:12.893Z,101510.28
2022-08-10T01:02:07.329Z,101499.31
2022-08-10T01:06:39.639Z,101502.03
2022-08-10T01:12:37.518Z,101511.97
2022-08-10T01:17:14.359Z,101496.09
2022-08-10T01:22:34.120Z,101503.47
2022-08-10T01:27:43.318Z,101506.94
2022-08-10T01:32:54.937Z,101519.66
2022-08-10T01:38:04.921Z,101518.19
2022-08-10T01:43:11.205Z,101522.81
2022-08-10T01:48:32.153Z,101524.38
2022-08-10T01:53:40.168Z,101528.13
2022-08-10T01:58:45.952Z,101527.03
2022-08-10T02:04:04.184Z,101520.19
2022-08-10T02:09:09.166Z,101517.03
2022-08-10T02:14:14.439Z,101521.91
2022-08-10T02:19:20.806Z,101516.69
2022-08-10T02:24:25.745Z,101517.31
2022-08-10T02:29:29.439Z,101518.34
2022-08-10T02:34:34.901Z,101499.44
2022-08-10T02:39:38.335Z,101506.22
2022-08-10T02:45:19.856Z,101498.50
2022-08-10T02:50:15.744Z,101508.66
2022-08-10T02:55:27.202Z,101526.56
2022-08-10T03:00:36.776Z,101522.13
2022-08-10T03:05:41.577Z,101531.69
2022-08-10T03:10:46.163Z,101536.97
2022-08-10T03:15:51.209Z,101539.41
2022-08-10T03:20:56.663Z,101532.44
2022-08-10T03:26:00.689Z,101540.00
2022-08-10T03:31:03.807Z,101547.94
2022-08-10T03:36:41.691Z,101544.97
2022-08-10T03:41:35.951Z,101533.94
2022-08-10T03:46:42.251Z,101545.50
2022-08-10T03:51:49.237Z,101540.78
2022-08-10T03:56:52.370Z,101544.97
2022-08-10T04:02:46.061Z,101529.81
2022-08-10T04:07:19.872Z,101544.13
2022-08-10T04:12:22.675Z,101547.41
2022-08-10T04:18:04.481Z,101544.00
2022-08-10T04:22:53.609Z,101552.75
2022-08-10T04:27:56.419Z,101561.03
2022-08-10T04:33:02.219Z,101552.63
2022-08-10T04:38:07.814Z,101546.28
2022-08-10T04:43:13.379Z,101544.09
2022-08-10T04:48:40.527Z,101548.63
2022-08-10T04:54:05.904Z,101545.41
2022-08-10T04:59:02.600Z,101551.34
2022-08-10T05:04:37.109Z,101555.44
2022-08-10T05:09:29.378Z,101554.31
2022-08-10T05:14:31.968Z,101559.81
2022-08-10T05:20:04.120Z,101554.88
2022-08-10T05:24:58.314Z,101567.69
2022-08-10T05:30:01.191Z,101566.81
2022-08-10T05:35:05.980Z,101569.19
2022-08-10T05:40:10.661Z,101576.25
2022-08-10T05:45:21.178Z,101567.56
2022-08-10T05:50:26.836Z,101569.63
2022-08-10T05:55:32.259Z,101573.59
2022-08-10T06:00:41.771Z,101577.75
2022-08-10T06:05:49.207Z,101573.22
2022-08-10T06:12:23.600Z,101576.88
2022-08-10T06:16:20.254Z,101583.72
2022-08-10T06:21:22.798Z,101583.50
2022-08-10T06:26:26.596Z,101577.00
2022-08-10T06:31:46.680Z,101562.53
2022-08-10T06:36:54.132Z,101576.66
2022-08-10T06:42:15.941Z,101577.97
2022-08-10T06:47:23.728Z,101574.75
2022-08-10T06:52:27.912Z,101579.25
2022-08-10T06:57:35.497Z,101582.00
2022-08-10T07:02:45.210Z,101573.41
2022-08-10T07:07:49.094Z,101574.81
2022-08-10T07:12:58.737Z,101580.75
2022-08-10T07:18:02.834Z,101567.22
2022-08-10T07:23:58.542Z,101567.72
2022-08-10T07:28:32.759Z,101564.44
2022-08-10T07:33:37.098Z,101569.47
2022-08-10T07:38:41.484Z,101572.06
2022-08-10T07:43:48.208Z,101569.63
2022-08-10T07:49:00.357Z,101576.44
2022-08-10T07:54:06.131Z,101579.34
2022-08-10T07:59:11.905Z,101572.69
2022-08-10T08:04:15.856Z,101574.41
2022-08-10T08:09:19.362Z,101563.78
2022-08-10T08:14:24.618Z,101572.97
2022-08-10T08:19:37.494Z,101574.19
2022-08-10T08:24:47.215Z,101570.06
2022-08-10T08:29:53.061Z,101569.06
2022-08-10T08:34:58.738Z,101569.84
2022-08-10T08:40:02.032Z,101556.13
2022-08-10T08:45:14.491Z,101547.59
2022-08-10T08:50:32.547Z,101541.34
2022-08-10T08:56:03.060Z,101551.28
2022-08-10T09:01:42.272Z,101542.47
2022-08-10T09:06:55.765Z,101531.44
2022-08-10T09:12:13.576Z,101528.69
2022-08-10T09:17:24.388Z,101530.38
2022-08-10T09:22:34.840Z,101522.03
2022-08-10T09:27:43.547Z,101523.94
2022-08-10T09:36:15.668Z,101528.72
2022-08-10T09:38:19.473Z,101527.56
2022-08-10T09:43:31.936Z,101526.84
2022-08-10T09:48:44.324Z,101516.63
2022-08-10T09:54:06.114Z,101517.78
2022-08-10T09:59:56.560Z,101507.28
2022-08-10T10:04:48.555Z,101503.69
2022-08-10T10:09:58.829Z,101494.44
2022-08-10T10:15:24.073Z,101484.28
2022-08-10T10:20:37.371Z,101479.41
2022-08-10T10:25:50.909Z,101476.50
2022-08-10T10:31:05.818Z,101472.22
2022-08-10T10:36:21.779Z,101459.94
2022-08-10T10:41:56.017Z,101465.28
2022-08-10T10:47:10.811Z,101454.91
2022-08-10T10:52:28.776Z,101448.84
2022-08-10T10:58:00.546Z,101440.69
2022-08-10T11:03:20.103Z,101442.53
2022-08-10T11:08:29.464Z,101425.31
2022-08-10T11:14:27.565Z,101438.34
2022-08-10T11:19:08.750Z,101431.38
2022-08-10T11:24:42.808Z,101421.97
2022-08-10T11:29:49.895Z,101428.63
2022-08-10T11:35:10.532Z,101427.84
2022-08-10T11:40:21.318Z,101430.78
2022-08-10T11:45:31.657Z,101413.13
2022-08-10T11:50:40.292Z,101413.59
2022-08-10T11:55:49.444Z,101416.41
2022-08-10T12:00:53.638Z,101418.91
2022-08-10T12:05:56.610Z,101419.16
2022-08-10T12:11:00.713Z,101410.13
2022-08-10T12:16:07.346Z,101403.91
2022-08-10T12:21:21.557Z,101402.44
2022-08-10T12:26:29.262Z,101401.53
2022-08-10T12:31:36.108Z,101382.19
2022-08-10T12:36:42.408Z,101372.81
2022-08-10T12:42:00.286Z,101376.91
2022-08-10T12:47:13.990Z,101382.69
2022-08-10T12:52:20.405Z,101384.66
2022-08-10T12:57:26.729Z,101367.84
2022-08-10T13:02:33.411Z,101367.53
2022-08-10T13:08:27.356Z,101350.38
2022-08-10T13:13:03.932Z,101341.50
2022-08-10T13:18:18.217Z,101340.81
2022-08-10T13:23:24.482Z,101328.34
2022-08-10T13:28:39.927Z,101333.19
2022-08-10T13:34:38.863Z,101324.69
2022-08-10T13:39:18.042Z,101318.19
2022-08-10T13:44:32.224Z,101314.03
2022-08-10T13:49:45.980Z,101309.28
2022-08-10T13:54:49.385Z,101303.81
2022-08-10T14:00:35.010Z,101312.63
2022-08-10T14:05:27.520Z,101300.63
2022-08-10T14:11:09.818Z,101297.53
2022-08-10T14:16:06.828Z,101298.91
2022-08-10T14:21:09.643Z,101300.31
2022-08-10T14:26:15.868Z,101300.16
2022-08-10T14:31:24.829Z,101289.78
2022-08-10T14:36:34.120Z,101284.19
2022-08-10T14:42:01.748Z,101280.34
2022-08-10T14:47:52.606Z,101270.31
2022-08-10T14:52:29.978Z,101265.88
2022-08-10T14:57:33.617Z,101264.28
2022-08-10T15:03:01.282Z,101260.28
2022-08-10T15:08:05.107Z,101262.63
2022-08-10T15:13:08.751Z,101261.09
2022-08-10T15:18:34.323Z,101263.00
2022-08-10T15:24:05.111Z,101254.59
2022-08-10T15:29:24.057Z,101249.22
2022-08-10T15:34:47.658Z,101241.56
2022-08-10T15:40:25.691Z,101244.88
2022-08-10T15:45:23.836Z,101234.16
2022-08-10T15:50:32.942Z,101237.97
2022-08-10T15:55:42.394Z,101225.50
2022-08-10T16:00:51.497Z,101232.66
2022-08-10T16:06:01.441Z,101228.09
2022-08-10T16:11:09.110Z,101228.09
2022-08-10T16:16:15.353Z,101226.22
2022-08-10T16:21:21.567Z,101227.47
2022-08-10T16:26:28.125Z,101221.72
2022-08-10T16:31:35.684Z,101225.44
2022-08-10T16:36:43.907Z,101216.94
2022-08-10T16:42:05.241Z,101215.88
2022-08-10T16:47:11.238Z,101214.66
2022-08-10T16:52:16.858Z,101201.53
2022-08-10T16:57:21.682Z,101209.00
2022-08-10T17:02:26.708Z,101203.38
2022-08-10T17:07:31.850Z,101207.28
2022-08-10T17:12:36.227Z,101196.66
2022-08-10T17:17:42.643Z,101207.19
2022-08-10T17:22:50.497Z,101198.25
2022-08-10T17:28:05.708Z,101197.78
2022-08-10T17:33:14.816Z,101203.75
2022-08-10T17:38:22.058Z,101201.22
2022-08-10T17:43:58.483Z,101193.16
2022-08-10T17:48:53.510Z,101196.19
2022-08-10T17:53:59.211Z,101204.97
2022-08-10T17:59:08.585Z,101198.66
2022-08-10T18:04:18.598Z,101197.97
2022-08-10T18:09:33.379Z,101201.03
2022-08-10T18:14:37.760Z,101207.91
2022-08-10T18:19:43.292Z,101203.22
2022-08-10T18:24:48.419Z,101203.78
2022-08-10T18:29:53.453Z,101207.06
2022-08-10T18:35:01.009Z,101212.56
2022-08-10T18:40:09.834Z,101207.75
2022-08-10T18:45:15.535Z,101220.66
2022-08-10T18:50:28.487Z,101228.56
2022-08-10T18:55:46.254Z,101228.34
2022-08-10T19:01:09.534Z,101231.31
2022-08-10T19:06:23.451Z,101232.97
2022-08-10T19:11:34.715Z,101239.81
2022-08-10T19:16:47.921Z,101237.44
2022-08-10T19:22:05.556Z,101244.84
2022-08-10T19:27:15.999Z,101248.19
2022-08-10T19:32:28.474Z,101244.13
2022-08-10T19:37:38.028Z,101246.91
2022-08-10T19:42:48.518Z,101246.72
2022-08-10T19:47:56.823Z,101253.91
2022-08-10T19:53:10.911Z,101248.00
2022-08-10T19:58:19.838Z,101239.91
2022-08-10T20:03:27.443Z,101238.34
2022-08-10T20:08:36.219Z,101244.44
2022-08-10T20:13:48.196Z,101240.50
2022-08-10T20:18:55.329Z,101250.72
2022-08-10T20:24:05.679Z,101247.22
2022-08-10T20:29:16.539Z,101245.78
2022-08-10T20:34:42.943Z,101253.31
2022-08-10T20:39:50.072Z,101248.28
2022-08-10T20:45:04.084Z,101249.75
2022-08-10T20:50:18.790Z,101248.75
2022-08-10T20:55:24.679Z,101251.69
2022-08-10T21:00:47.458Z,101246.44
2022-08-10T21:06:03.946Z,101248.72
2022-08-10T21:11:15.142Z,101245.41
2022-08-10T21:16:32.726Z,101242.84
2022-08-10T21:21:59.541Z,101251.03
2022-08-10T21:27:16.503Z,101250.59
2022-08-10T21:32:35.597Z,101248.84
2022-08-10T21:37:56.657Z,101248.47
2022-08-10T21:43:44.131Z,101251.19
2022-08-10T21:49:15.016Z,101257.25
2022-08-10T21:54:41.160Z,101247.00
2022-08-10T22:00:12.040Z,101248.25
2022-08-10T22:05:38.939Z,101257.53
2022-08-10T22:11:03.294Z,101254.25
2022-08-10T22:16:32.959Z,101248.38
2022-08-10T22:22:04.588Z,101253.94
2022-08-10T22:27:47.513Z,101254.41
2022-08-10T22:33:21.755Z,101258.41
2022-08-10T22:39:02.234Z,101258.25
2022-08-10T22:44:23.836Z,101249.22
2022-08-10T22:49:25.974Z,101248.81
2022-08-10T22:54:56.386Z,101253.50
2022-08-10T22:59:59.519Z,101241.66
2022-08-10T23:05:09.132Z,101245.53
2022-08-10T23:10:15.217Z,101245.97
2022-08-10T23:15:44.116Z,101239.59
2022-08-10T23:20:48.803Z,101240.38
2022-08-10T23:25:58.150Z,101229.66
2022-08-10T23:31:02.611Z,101237.25
2022-08-10T23:36:34.320Z,101233.06
2022-08-10T23:41:33.167Z,101236.88
2022-08-10T23:46:39.726Z,101233.47
2022-08-10T23:51:55.472Z,101226.13
2022-08-10T23:57:02.238Z,101226.13
